sensor_id;sensor_type;location;lat;lon;timestamp;P1;durP1;ratioP1;P2;durP2;ratioP2
15230;SDS011;32569;51.762;8.564;2023-08-30T00:01:21;8.93;;;8.23;;
15230;SDS011;32569;51.762;8.564;2023-08-30T00:03:48;9.70;;;8.90;;
15230;SDS011;32569;51.762;8.564;2023-08-30T00:06:15;9.13;;;8.40;;
15230;SDS011;32569;51.762;8.564;2023-08-30T00:08:40;8.53;;;7.73;;
15230;SDS011;32569;51.762;8.564;2023-08-30T00:11:07;9.33;;;8.63;;
15230;SDS011;32569;51.762;8.564;2023-08-30T00:13:34;10.07;;;9.27;;
15230;SDS011;32569;51.762;8.564;2023-08-30T00:16:02;9.63;;;8.67;;
15230;SDS011;32569;51.762;8.564;2023-08-30T00:18:29;9.33;;;8.57;;
15230;SDS011;32569;51.762;8.564;2023-08-30T00:20:56;10.03;;;9.13;;
15230;SDS011;32569;51.762;8.564;2023-08-30T00:23:23;10.40;;;9.47;;
15230;SDS011;32569;51.762;8.564;2023-08-30T00:25:50;9.93;;;9.03;;
15230;SDS011;32569;51.762;8.564;2023-08-30T00:28:16;9.00;;;8.20;;
15230;SDS011;32569;51.762;8.564;2023-08-30T00:30:43;8.87;;;8.10;;
15230;SDS011;32569;51.762;8.564;2023-08-30T00:33:11;8.87;;;8.10;;
15230;SDS011;32569;51.762;8.564;2023-08-30T00:35:38;8.60;;;7.90;;
15230;SDS011;32569;51.762;8.564;2023-08-30T00:38:04;8.90;;;8.20;;
15230;SDS011;32569;51.762;8.564;2023-08-30T00:40:37;8.77;;;8.07;;
15230;SDS011;32569;51.762;8.564;2023-08-30T00:43:04;8.37;;;7.67;;
15230;SDS011;32569;51.762;8.564;2023-08-30T00:45:31;8.43;;;7.63;;
15230;SDS011;32569;51.762;8.564;2023-08-30T00:48:01;8.03;;;7.30;;
15230;SDS011;32569;51.762;8.564;2023-08-30T00:50:31;7.93;;;7.30;;
15230;SDS011;32569;51.762;8.564;2023-08-30T00:52:57;7.40;;;6.80;;
15230;SDS011;32569;51.762;8.564;2023-08-30T00:55:24;7.87;;;7.27;;
15230;SDS011;32569;51.762;8.564;2023-08-30T00:57:51;7.77;;;6.97;;
15230;SDS011;32569;51.762;8.564;2023-08-30T01:00:18;7.53;;;6.83;;
15230;SDS011;32569;51.762;8.564;2023-08-30T01:02:44;7.63;;;7.03;;
15230;SDS011;32569;51.762;8.564;2023-08-30T01:05:11;6.93;;;6.33;;
15230;SDS011;32569;51.762;8.564;2023-08-30T01:07:40;7.43;;;6.83;;
15230;SDS011;32569;51.762;8.564;2023-08-30T01:10:08;9.40;;;6.97;;
15230;SDS011;32569;51.762;8.564;2023-08-30T01:12:37;7.90;;;7.20;;
15230;SDS011;32569;51.762;8.564;2023-08-30T01:15:10;7.03;;;6.43;;
15230;SDS011;32569;51.762;8.564;2023-08-30T01:17:39;7.03;;;6.53;;
15230;SDS011;32569;51.762;8.564;2023-08-30T01:20:08;7.03;;;6.43;;
15230;SDS011;32569;51.762;8.564;2023-08-30T01:22:43;6.83;;;6.33;;
15230;SDS011;32569;51.762;8.564;2023-08-30T01:25:23;7.00;;;6.40;;
15230;SDS011;32569;51.762;8.564;2023-08-30T01:27:59;6.97;;;6.37;;
15230;SDS011;32569;51.762;8.564;2023-08-30T01:30:28;7.47;;;6.87;;
15230;SDS011;32569;51.762;8.564;2023-08-30T01:32:56;7.20;;;6.50;;
15230;SDS011;32569;51.762;8.564;2023-08-30T01:35:26;7.40;;;6.77;;
15230;SDS011;32569;51.762;8.564;2023-08-30T01:37:57;6.87;;;6.27;;
15230;SDS011;32569;51.762;8.564;2023-08-30T01:40:25;7.30;;;6.60;;
15230;SDS011;32569;51.762;8.564;2023-08-30T01:42:56;7.03;;;6.53;;
15230;SDS011;32569;51.762;8.564;2023-08-30T01:45:26;6.50;;;6.00;;
15230;SDS011;32569;51.762;8.564;2023-08-30T01:47:54;7.17;;;6.63;;
15230;SDS011;32569;51.762;8.564;2023-08-30T01:50:23;6.43;;;5.90;;
15230;SDS011;32569;51.762;8.564;2023-08-30T01:52:50;7.17;;;6.57;;
15230;SDS011;32569;51.762;8.564;2023-08-30T01:55:19;6.77;;;6.17;;
15230;SDS011;32569;51.762;8.564;2023-08-30T01:57:47;6.73;;;6.13;;
15230;SDS011;32569;51.762;8.564;2023-08-30T02:00:15;7.13;;;6.50;;
15230;SDS011;32569;51.762;8.564;2023-08-30T02:02:43;6.80;;;6.30;;
15230;SDS011;32569;51.762;8.564;2023-08-30T02:05:08;6.83;;;6.13;;
15230;SDS011;32569;51.762;8.564;2023-08-30T02:07:38;6.93;;;6.27;;
15230;SDS011;32569;51.762;8.564;2023-08-30T02:10:10;7.50;;;6.07;;
15230;SDS011;32569;51.762;8.564;2023-08-30T02:12:42;7.10;;;6.43;;
15230;SDS011;32569;51.762;8.564;2023-08-30T02:15:13;6.60;;;6.10;;
15230;SDS011;32569;51.762;8.564;2023-08-30T02:17:43;7.07;;;6.37;;
15230;SDS011;32569;51.762;8.564;2023-08-30T02:20:10;6.53;;;6.00;;
15230;SDS011;32569;51.762;8.564;2023-08-30T02:22:38;6.60;;;6.10;;
15230;SDS011;32569;51.762;8.564;2023-08-30T02:25:05;7.03;;;6.43;;
15230;SDS011;32569;51.762;8.564;2023-08-30T02:27:35;6.80;;;6.30;;
15230;SDS011;32569;51.762;8.564;2023-08-30T02:30:02;7.30;;;6.73;;
15230;SDS011;32569;51.762;8.564;2023-08-30T02:32:30;6.77;;;6.17;;
15230;SDS011;32569;51.762;8.564;2023-08-30T02:34:58;7.30;;;6.57;;
15230;SDS011;32569;51.762;8.564;2023-08-30T02:37:24;7.43;;;6.80;;
15230;SDS011;32569;51.762;8.564;2023-08-30T02:39:51;7.00;;;6.40;;
15230;SDS011;32569;51.762;8.564;2023-08-30T02:42:18;7.00;;;6.40;;
15230;SDS011;32569;51.762;8.564;2023-08-30T02:44:44;7.70;;;7.10;;
15230;SDS011;32569;51.762;8.564;2023-08-30T02:47:11;7.50;;;6.90;;
15230;SDS011;32569;51.762;8.564;2023-08-30T02:49:38;7.23;;;6.63;;
15230;SDS011;32569;51.762;8.564;2023-08-30T02:52:06;7.50;;;6.87;;
15230;SDS011;32569;51.762;8.564;2023-08-30T02:54:33;7.63;;;7.00;;
15230;SDS011;32569;51.762;8.564;2023-08-30T02:56:59;7.63;;;7.03;;
15230;SDS011;32569;51.762;8.564;2023-08-30T02:59:26;7.70;;;7.00;;
15230;SDS011;32569;51.762;8.564;2023-08-30T03:01:53;7.53;;;6.90;;
15230;SDS011;32569;51.762;8.564;2023-08-30T03:04:19;7.70;;;7.10;;
15230;SDS011;32569;51.762;8.564;2023-08-30T03:06:46;7.57;;;6.97;;
15230;SDS011;32569;51.762;8.564;2023-08-30T03:09:14;7.83;;;7.13;;
15230;SDS011;32569;51.762;8.564;2023-08-30T03:11:41;7.70;;;6.90;;
15230;SDS011;32569;51.762;8.564;2023-08-30T03:14:08;8.23;;;7.43;;
15230;SDS011;32569;51.762;8.564;2023-08-30T03:16:35;8.27;;;7.47;;
15230;SDS011;32569;51.762;8.564;2023-08-30T03:19:01;7.43;;;6.80;;
15230;SDS011;32569;51.762;8.564;2023-08-30T03:21:28;8.67;;;7.93;;
15230;SDS011;32569;51.762;8.564;2023-08-30T03:23:55;8.17;;;7.47;;
15230;SDS011;32569;51.762;8.564;2023-08-30T03:26:23;8.10;;;7.50;;
15230;SDS011;32569;51.762;8.564;2023-08-30T03:28:50;8.57;;;7.87;;
15230;SDS011;32569;51.762;8.564;2023-08-30T03:31:17;8.93;;;8.13;;
15230;SDS011;32569;51.762;8.564;2023-08-30T03:33:44;9.37;;;8.47;;
15230;SDS011;32569;51.762;8.564;2023-08-30T03:36:12;9.43;;;8.63;;
15230;SDS011;32569;51.762;8.564;2023-08-30T03:38:40;9.43;;;8.53;;
15230;SDS011;32569;51.762;8.564;2023-08-30T03:41:08;9.07;;;8.37;;
15230;SDS011;32569;51.762;8.564;2023-08-30T03:43:36;8.87;;;7.97;;
15230;SDS011;32569;51.762;8.564;2023-08-30T03:46:03;9.87;;;9.07;;
15230;SDS011;32569;51.762;8.564;2023-08-30T03:48:30;9.60;;;8.63;;
15230;SDS011;32569;51.762;8.564;2023-08-30T03:50:57;9.57;;;8.77;;
15230;SDS011;32569;51.762;8.564;2023-08-30T03:53:24;9.03;;;8.13;;
15230;SDS011;32569;51.762;8.564;2023-08-30T03:55:51;8.97;;;8.07;;
15230;SDS011;32569;51.762;8.564;2023-08-30T03:58:18;8.93;;;8.13;;
15230;SDS011;32569;51.762;8.564;2023-08-30T04:00:46;8.30;;;7.60;;
15230;SDS011;32569;51.762;8.564;2023-08-30T04:03:13;9.37;;;8.57;;
15230;SDS011;32569;51.762;8.564;2023-08-30T04:05:41;8.10;;;7.40;;
15230;SDS011;32569;51.762;8.564;2023-08-30T04:08:09;8.60;;;7.80;;
15230;SDS011;32569;51.762;8.564;2023-08-30T04:10:36;9.30;;;8.37;;
15230;SDS011;32569;51.762;8.564;2023-08-30T04:13:03;9.17;;;8.37;;
15230;SDS011;32569;51.762;8.564;2023-08-30T04:15:32;9.57;;;8.87;;
15230;SDS011;32569;51.762;8.564;2023-08-30T04:18:00;9.03;;;8.33;;
15230;SDS011;32569;51.762;8.564;2023-08-30T04:20:27;9.07;;;8.27;;
15230;SDS011;32569;51.762;8.564;2023-08-30T04:22:54;9.33;;;8.53;;
15230;SDS011;32569;51.762;8.564;2023-08-30T04:25:21;10.70;;;9.53;;
15230;SDS011;32569;51.762;8.564;2023-08-30T04:27:48;9.40;;;8.60;;
15230;SDS011;32569;51.762;8.564;2023-08-30T04:30:15;9.87;;;8.97;;
15230;SDS011;32569;51.762;8.564;2023-08-30T04:32:48;10.93;;;9.93;;
15230;SDS011;32569;51.762;8.564;2023-08-30T04:35:16;10.57;;;9.53;;
15230;SDS011;32569;51.762;8.564;2023-08-30T04:37:43;10.33;;;9.43;;
15230;SDS011;32569;51.762;8.564;2023-08-30T04:40:10;10.63;;;9.53;;
15230;SDS011;32569;51.762;8.564;2023-08-30T04:42:37;9.80;;;8.93;;
15230;SDS011;32569;51.762;8.564;2023-08-30T04:45:05;9.67;;;8.87;;
15230;SDS011;32569;51.762;8.564;2023-08-30T04:47:34;10.90;;;9.90;;
15230;SDS011;32569;51.762;8.564;2023-08-30T04:50:04;10.87;;;9.87;;
15230;SDS011;32569;51.762;8.564;2023-08-30T04:52:33;10.27;;;9.37;;
15230;SDS011;32569;51.762;8.564;2023-08-30T04:55:00;10.57;;;9.53;;
15230;SDS011;32569;51.762;8.564;2023-08-30T04:57:26;10.93;;;9.90;;
15230;SDS011;32569;51.762;8.564;2023-08-30T04:59:53;10.23;;;9.40;;
15230;SDS011;32569;51.762;8.564;2023-08-30T05:02:21;11.00;;;10.10;;
15230;SDS011;32569;51.762;8.564;2023-08-30T05:04:47;11.33;;;10.17;;
15230;SDS011;32569;51.762;8.564;2023-08-30T05:07:14;10.60;;;9.70;;
15230;SDS011;32569;51.762;8.564;2023-08-30T05:09:42;10.43;;;9.30;;
15230;SDS011;32569;51.762;8.564;2023-08-30T05:12:09;10.90;;;9.87;;
15230;SDS011;32569;51.762;8.564;2023-08-30T05:14:36;11.13;;;9.50;;
15230;SDS011;32569;51.762;8.564;2023-08-30T05:17:02;10.47;;;9.47;;
15230;SDS011;32569;51.762;8.564;2023-08-30T05:19:29;10.40;;;9.50;;
15230;SDS011;32569;51.762;8.564;2023-08-30T05:21:56;10.10;;;9.10;;
15230;SDS011;32569;51.762;8.564;2023-08-30T05:24:23;11.93;;;10.83;;
15230;SDS011;32569;51.762;8.564;2023-08-30T05:26:55;10.43;;;9.43;;
15230;SDS011;32569;51.762;8.564;2023-08-30T05:29:22;10.90;;;10.00;;
15230;SDS011;32569;51.762;8.564;2023-08-30T05:31:49;10.97;;;9.97;;
15230;SDS011;32569;51.762;8.564;2023-08-30T05:34:18;11.43;;;10.37;;
15230;SDS011;32569;51.762;8.564;2023-08-30T05:36:45;11.93;;;10.83;;
15230;SDS011;32569;51.762;8.564;2023-08-30T05:39:15;11.30;;;10.23;;
15230;SDS011;32569;51.762;8.564;2023-08-30T05:41:41;11.93;;;10.73;;
15230;SDS011;32569;51.762;8.564;2023-08-30T05:44:09;12.67;;;11.37;;
15230;SDS011;32569;51.762;8.564;2023-08-30T05:46:36;11.33;;;10.23;;
15230;SDS011;32569;51.762;8.564;2023-08-30T05:49:03;12.27;;;11.17;;
15230;SDS011;32569;51.762;8.564;2023-08-30T05:51:30;12.47;;;11.27;;
15230;SDS011;32569;51.762;8.564;2023-08-30T05:53:57;11.87;;;10.77;;
15230;SDS011;32569;51.762;8.564;2023-08-30T05:56:24;12.17;;;11.07;;
15230;SDS011;32569;51.762;8.564;2023-08-30T05:58:51;12.27;;;11.17;;
15230;SDS011;32569;51.762;8.564;2023-08-30T06:01:19;12.03;;;11.03;;
15230;SDS011;32569;51.762;8.564;2023-08-30T06:03:46;12.73;;;11.47;;
15230;SDS011;32569;51.762;8.564;2023-08-30T06:06:16;12.00;;;10.90;;
15230;SDS011;32569;51.762;8.564;2023-08-30T06:08:42;12.20;;;10.97;;
15230;SDS011;32569;51.762;8.564;2023-08-30T06:11:18;12.07;;;10.87;;
15230;SDS011;32569;51.762;8.564;2023-08-30T06:13:44;12.57;;;11.37;;
15230;SDS011;32569;51.762;8.564;2023-08-30T06:16:11;12.13;;;10.87;;
15230;SDS011;32569;51.762;8.564;2023-08-30T06:18:39;11.93;;;10.73;;
15230;SDS011;32569;51.762;8.564;2023-08-30T06:21:12;12.63;;;11.40;;
15230;SDS011;32569;51.762;8.564;2023-08-30T06:23:39;12.77;;;11.50;;
15230;SDS011;32569;51.762;8.564;2023-08-30T06:26:06;11.90;;;10.70;;
15230;SDS011;32569;51.762;8.564;2023-08-30T06:28:32;12.27;;;11.17;;
15230;SDS011;32569;51.762;8.564;2023-08-30T06:30:59;12.47;;;11.30;;
15230;SDS011;32569;51.762;8.564;2023-08-30T06:33:26;13.00;;;11.70;;
15230;SDS011;32569;51.762;8.564;2023-08-30T06:35:54;12.77;;;11.67;;
15230;SDS011;32569;51.762;8.564;2023-08-30T06:38:21;12.67;;;11.37;;
15230;SDS011;32569;51.762;8.564;2023-08-30T06:40:48;12.70;;;11.60;;
15230;SDS011;32569;51.762;8.564;2023-08-30T06:43:15;12.67;;;11.57;;
15230;SDS011;32569;51.762;8.564;2023-08-30T06:45:46;13.13;;;11.50;;
15230;SDS011;32569;51.762;8.564;2023-08-30T06:48:12;12.93;;;11.83;;
15230;SDS011;32569;51.762;8.564;2023-08-30T06:50:39;13.00;;;11.70;;
15230;SDS011;32569;51.762;8.564;2023-08-30T06:53:07;13.00;;;11.73;;
15230;SDS011;32569;51.762;8.564;2023-08-30T06:55:35;13.20;;;11.97;;
15230;SDS011;32569;51.762;8.564;2023-08-30T06:58:02;13.40;;;12.10;;
15230;SDS011;32569;51.762;8.564;2023-08-30T07:00:29;14.60;;;13.10;;
15230;SDS011;32569;51.762;8.564;2023-08-30T07:02:56;14.23;;;12.47;;
15230;SDS011;32569;51.762;8.564;2023-08-30T07:05:24;14.27;;;13.00;;
15230;SDS011;32569;51.762;8.564;2023-08-30T07:07:54;15.17;;;13.30;;
15230;SDS011;32569;51.762;8.564;2023-08-30T07:10:24;14.97;;;12.87;;
15230;SDS011;32569;51.762;8.564;2023-08-30T07:12:50;14.37;;;12.87;;
15230;SDS011;32569;51.762;8.564;2023-08-30T07:15:20;14.63;;;13.23;;
15230;SDS011;32569;51.762;8.564;2023-08-30T07:17:50;16.07;;;14.43;;
15230;SDS011;32569;51.762;8.564;2023-08-30T07:20:16;18.00;;;14.43;;
15230;SDS011;32569;51.762;8.564;2023-08-30T07:22:43;15.67;;;14.23;;
15230;SDS011;32569;51.762;8.564;2023-08-30T07:25:10;20.80;;;15.43;;
15230;SDS011;32569;51.762;8.564;2023-08-30T07:27:40;17.63;;;15.60;;
15230;SDS011;32569;51.762;8.564;2023-08-30T07:30:07;16.73;;;15.03;;
15230;SDS011;32569;51.762;8.564;2023-08-30T07:32:34;20.10;;;15.93;;
15230;SDS011;32569;51.762;8.564;2023-08-30T07:35:10;24.27;;;17.60;;
15230;SDS011;32569;51.762;8.564;2023-08-30T07:37:37;25.73;;;18.67;;
15230;SDS011;32569;51.762;8.564;2023-08-30T07:40:03;19.93;;;17.70;;
15230;SDS011;32569;51.762;8.564;2023-08-30T07:42:31;26.10;;;20.70;;
15230;SDS011;32569;51.762;8.564;2023-08-30T07:44:59;18.50;;;16.50;;
15230;SDS011;32569;51.762;8.564;2023-08-30T07:47:25;19.47;;;17.40;;
15230;SDS011;32569;51.762;8.564;2023-08-30T07:49:52;21.97;;;17.13;;
15230;SDS011;32569;51.762;8.564;2023-08-30T07:52:19;18.83;;;16.87;;
15230;SDS011;32569;51.762;8.564;2023-08-30T07:54:46;20.50;;;18.40;;
15230;SDS011;32569;51.762;8.564;2023-08-30T07:57:12;21.97;;;18.17;;
15230;SDS011;32569;51.762;8.564;2023-08-30T07:59:39;21.27;;;19.00;;
15230;SDS011;32569;51.762;8.564;2023-08-30T08:02:08;23.63;;;19.53;;
15230;SDS011;32569;51.762;8.564;2023-08-30T08:04:34;20.43;;;18.23;;
15230;SDS011;32569;51.762;8.564;2023-08-30T08:07:01;20.43;;;17.07;;
15230;SDS011;32569;51.762;8.564;2023-08-30T08:09:29;21.73;;;19.47;;
15230;SDS011;32569;51.762;8.564;2023-08-30T08:11:59;21.93;;;19.30;;
15230;SDS011;32569;51.762;8.564;2023-08-30T08:14:29;29.17;;;20.77;;
15230;SDS011;32569;51.762;8.564;2023-08-30T08:16:56;22.53;;;19.90;;
15230;SDS011;32569;51.762;8.564;2023-08-30T08:19:24;23.23;;;20.73;;
15230;SDS011;32569;51.762;8.564;2023-08-30T08:21:54;23.33;;;20.10;;
15230;SDS011;32569;51.762;8.564;2023-08-30T08:24:23;22.90;;;20.50;;
15230;SDS011;32569;51.762;8.564;2023-08-30T08:26:50;22.33;;;19.93;;
15230;SDS011;32569;51.762;8.564;2023-08-30T08:29:19;23.83;;;21.33;;
15230;SDS011;32569;51.762;8.564;2023-08-30T08:31:55;21.97;;;19.77;;
15230;SDS011;32569;51.762;8.564;2023-08-30T08:34:22;22.60;;;20.17;;
15230;SDS011;32569;51.762;8.564;2023-08-30T08:36:50;22.57;;;20.20;;
15230;SDS011;32569;51.762;8.564;2023-08-30T08:39:17;22.73;;;20.43;;
15230;SDS011;32569;51.762;8.564;2023-08-30T08:41:44;20.23;;;18.27;;
15230;SDS011;32569;51.762;8.564;2023-08-30T08:44:11;22.13;;;19.77;;
15230;SDS011;32569;51.762;8.564;2023-08-30T08:46:40;22.07;;;19.97;;
15230;SDS011;32569;51.762;8.564;2023-08-30T08:49:08;20.83;;;18.50;;
15230;SDS011;32569;51.762;8.564;2023-08-30T08:51:37;17.73;;;16.00;;
15230;SDS011;32569;51.762;8.564;2023-08-30T08:54:05;19.07;;;16.33;;
15230;SDS011;32569;51.762;8.564;2023-08-30T08:56:34;18.27;;;16.50;;
15230;SDS011;32569;51.762;8.564;2023-08-30T08:59:01;13.60;;;12.30;;
15230;SDS011;32569;51.762;8.564;2023-08-30T09:01:28;14.17;;;12.77;;
15230;SDS011;32569;51.762;8.564;2023-08-30T09:03:58;14.03;;;12.40;;
15230;SDS011;32569;51.762;8.564;2023-08-30T09:06:29;13.83;;;12.53;;
15230;SDS011;32569;51.762;8.564;2023-08-30T09:08:56;13.43;;;12.13;;
15230;SDS011;32569;51.762;8.564;2023-08-30T09:11:24;14.37;;;13.07;;
15230;SDS011;32569;51.762;8.564;2023-08-30T09:13:51;12.70;;;11.53;;
15230;SDS011;32569;51.762;8.564;2023-08-30T09:16:21;13.47;;;12.27;;
15230;SDS011;32569;51.762;8.564;2023-08-30T09:18:57;14.33;;;13.00;;
15230;SDS011;32569;51.762;8.564;2023-08-30T09:21:25;12.93;;;11.83;;
15230;SDS011;32569;51.762;8.564;2023-08-30T09:23:58;12.60;;;11.47;;
15230;SDS011;32569;51.762;8.564;2023-08-30T09:26:27;11.17;;;10.00;;
15230;SDS011;32569;51.762;8.564;2023-08-30T09:29:00;10.70;;;9.30;;
15230;SDS011;32569;51.762;8.564;2023-08-30T09:31:32;10.13;;;9.33;;
15230;SDS011;32569;51.762;8.564;2023-08-30T09:33:59;10.53;;;9.63;;
15230;SDS011;32569;51.762;8.564;2023-08-30T09:36:26;8.77;;;7.97;;
15230;SDS011;32569;51.762;8.564;2023-08-30T09:38:58;10.07;;;9.17;;
15230;SDS011;32569;51.762;8.564;2023-08-30T09:41:30;9.03;;;8.23;;
15230;SDS011;32569;51.762;8.564;2023-08-30T09:43:57;8.60;;;7.77;;
15230;SDS011;32569;51.762;8.564;2023-08-30T09:46:28;7.07;;;6.37;;
15230;SDS011;32569;51.762;8.564;2023-08-30T09:48:54;6.17;;;5.57;;
15230;SDS011;32569;51.762;8.564;2023-08-30T09:51:21;5.90;;;5.40;;
15230;SDS011;32569;51.762;8.564;2023-08-30T09:53:55;11.00;;;10.10;;
15230;SDS011;32569;51.762;8.564;2023-08-30T09:56:30;10.80;;;9.80;;
15230;SDS011;32569;51.762;8.564;2023-08-30T09:59:01;10.60;;;9.57;;
15230;SDS011;32569;51.762;8.564;2023-08-30T10:01:29;10.03;;;9.10;;
15230;SDS011;32569;51.762;8.564;2023-08-30T10:03:56;9.80;;;8.67;;
15230;SDS011;32569;51.762;8.564;2023-08-30T10:06:24;9.37;;;8.57;;
15230;SDS011;32569;51.762;8.564;2023-08-30T10:08:52;9.63;;;7.63;;
15230;SDS011;32569;51.762;8.564;2023-08-30T10:11:21;6.93;;;6.33;;
15230;SDS011;32569;51.762;8.564;2023-08-30T10:13:51;7.20;;;6.60;;
15230;SDS011;32569;51.762;8.564;2023-08-30T10:16:19;8.60;;;7.80;;
15230;SDS011;32569;51.762;8.564;2023-08-30T10:18:50;7.27;;;6.57;;
15230;SDS011;32569;51.762;8.564;2023-08-30T10:21:20;8.97;;;6.60;;
15230;SDS011;32569;51.762;8.564;2023-08-30T10:23:47;8.10;;;7.00;;
15230;SDS011;32569;51.762;8.564;2023-08-30T10:26:20;7.27;;;5.97;;
15230;SDS011;32569;51.762;8.564;2023-08-30T10:28:48;5.47;;;4.80;;
15230;SDS011;32569;51.762;8.564;2023-08-30T10:31:16;7.30;;;6.13;;
15230;SDS011;32569;51.762;8.564;2023-08-30T10:33:46;7.43;;;5.60;;
15230;SDS011;32569;51.762;8.564;2023-08-30T10:36:20;7.00;;;5.30;;
15230;SDS011;32569;51.762;8.564;2023-08-30T10:38:48;4.37;;;4.00;;
15230;SDS011;32569;51.762;8.564;2023-08-30T10:41:19;5.50;;;5.00;;
15230;SDS011;32569;51.762;8.564;2023-08-30T10:43:49;4.73;;;4.33;;
15230;SDS011;32569;51.762;8.564;2023-08-30T10:46:28;5.80;;;4.47;;
15230;SDS011;32569;51.762;8.564;2023-08-30T10:49:11;4.43;;;4.03;;
15230;SDS011;32569;51.762;8.564;2023-08-30T10:51:39;4.47;;;4.07;;
15230;SDS011;32569;51.762;8.564;2023-08-30T10:54:13;4.50;;;4.10;;
15230;SDS011;32569;51.762;8.564;2023-08-30T10:56:54;5.03;;;4.03;;
15230;SDS011;32569;51.762;8.564;2023-08-30T10:59:23;4.53;;;3.80;;
15230;SDS011;32569;51.762;8.564;2023-08-30T11:01:52;3.40;;;3.10;;
15230;SDS011;32569;51.762;8.564;2023-08-30T11:04:23;4.30;;;3.90;;
15230;SDS011;32569;51.762;8.564;2023-08-30T11:06:51;3.83;;;3.47;;
15230;SDS011;32569;51.762;8.564;2023-08-30T11:09:24;4.23;;;3.60;;
15230;SDS011;32569;51.762;8.564;2023-08-30T11:11:51;5.50;;;3.83;;
15230;SDS011;32569;51.762;8.564;2023-08-30T11:14:21;4.20;;;3.67;;
15230;SDS011;32569;51.762;8.564;2023-08-30T11:16:47;3.90;;;3.50;;
15230;SDS011;32569;51.762;8.564;2023-08-30T11:19:15;5.37;;;3.80;;
15230;SDS011;32569;51.762;8.564;2023-08-30T11:21:43;4.20;;;3.80;;
15230;SDS011;32569;51.762;8.564;2023-08-30T11:24:10;5.53;;;4.20;;
15230;SDS011;32569;51.762;8.564;2023-08-30T11:26:38;4.90;;;3.93;;
15230;SDS011;32569;51.762;8.564;2023-08-30T11:29:05;4.70;;;4.30;;
15230;SDS011;32569;51.762;8.564;2023-08-30T11:31:32;5.00;;;4.00;;
15230;SDS011;32569;51.762;8.564;2023-08-30T11:34:03;4.43;;;4.00;;
15230;SDS011;32569;51.762;8.564;2023-08-30T11:36:31;5.27;;;4.77;;
15230;SDS011;32569;51.762;8.564;2023-08-30T11:39:01;6.90;;;4.03;;
15230;SDS011;32569;51.762;8.564;2023-08-30T11:41:28;4.63;;;4.23;;
15230;SDS011;32569;51.762;8.564;2023-08-30T11:43:57;4.87;;;4.37;;
15230;SDS011;32569;51.762;8.564;2023-08-30T11:46:25;5.00;;;4.50;;
15230;SDS011;32569;51.762;8.564;2023-08-30T11:48:52;5.30;;;4.07;;
15230;SDS011;32569;51.762;8.564;2023-08-30T11:51:19;4.57;;;4.10;;
15230;SDS011;32569;51.762;8.564;2023-08-30T11:53:49;4.33;;;3.93;;
15230;SDS011;32569;51.762;8.564;2023-08-30T11:56:17;4.67;;;4.27;;
15230;SDS011;32569;51.762;8.564;2023-08-30T11:58:48;6.33;;;4.33;;
15230;SDS011;32569;51.762;8.564;2023-08-30T12:01:16;11.00;;;4.67;;
15230;SDS011;32569;51.762;8.564;2023-08-30T12:03:44;5.30;;;4.30;;
15230;SDS011;32569;51.762;8.564;2023-08-30T12:06:15;11.93;;;9.57;;
15230;SDS011;32569;51.762;8.564;2023-08-30T12:08:42;4.17;;;3.80;;
15230;SDS011;32569;51.762;8.564;2023-08-30T12:11:18;4.03;;;3.63;;
15230;SDS011;32569;51.762;8.564;2023-08-30T12:13:45;4.50;;;3.80;;
15230;SDS011;32569;51.762;8.564;2023-08-30T12:16:16;22.30;;;4.93;;
15230;SDS011;32569;51.762;8.564;2023-08-30T12:18:43;10.13;;;5.10;;
15230;SDS011;32569;51.762;8.564;2023-08-30T12:21:10;15.23;;;4.87;;
15230;SDS011;32569;51.762;8.564;2023-08-30T12:23:40;17.33;;;11.27;;
15230;SDS011;32569;51.762;8.564;2023-08-30T12:26:14;18.07;;;8.77;;
15230;SDS011;32569;51.762;8.564;2023-08-30T12:28:45;9.30;;;4.53;;
15230;SDS011;32569;51.762;8.564;2023-08-30T12:31:12;5.63;;;4.10;;
15230;SDS011;32569;51.762;8.564;2023-08-30T12:33:41;5.17;;;3.97;;
15230;SDS011;32569;51.762;8.564;2023-08-30T12:36:09;5.30;;;3.97;;
15230;SDS011;32569;51.762;8.564;2023-08-30T12:38:39;57.77;;;9.80;;
15230;SDS011;32569;51.762;8.564;2023-08-30T12:41:06;6.07;;;4.17;;
15230;SDS011;32569;51.762;8.564;2023-08-30T12:43:32;4.87;;;3.73;;
15230;SDS011;32569;51.762;8.564;2023-08-30T12:46:03;6.10;;;3.63;;
15230;SDS011;32569;51.762;8.564;2023-08-30T12:48:30;4.17;;;3.57;;
15230;SDS011;32569;51.762;8.564;2023-08-30T12:50:59;4.33;;;3.30;;
15230;SDS011;32569;51.762;8.564;2023-08-30T12:53:26;4.67;;;3.37;;
15230;SDS011;32569;51.762;8.564;2023-08-30T12:55:52;4.10;;;3.40;;
15230;SDS011;32569;51.762;8.564;2023-08-30T12:58:19;5.47;;;4.10;;
15230;SDS011;32569;51.762;8.564;2023-08-30T13:00:46;3.80;;;3.37;;
15230;SDS011;32569;51.762;8.564;2023-08-30T13:03:14;3.23;;;3.00;;
15230;SDS011;32569;51.762;8.564;2023-08-30T13:05:43;4.70;;;3.63;;
15230;SDS011;32569;51.762;8.564;2023-08-30T13:08:10;5.27;;;4.77;;
15230;SDS011;32569;51.762;8.564;2023-08-30T13:10:36;6.77;;;5.97;;
15230;SDS011;32569;51.762;8.564;2023-08-30T13:13:06;5.60;;;5.10;;
15230;SDS011;32569;51.762;8.564;2023-08-30T13:15:33;6.57;;;5.90;;
15230;SDS011;32569;51.762;8.564;2023-08-30T13:18:00;6.77;;;6.17;;
15230;SDS011;32569;51.762;8.564;2023-08-30T13:20:28;6.90;;;6.30;;
15230;SDS011;32569;51.762;8.564;2023-08-30T13:22:54;7.67;;;6.97;;
15230;SDS011;32569;51.762;8.564;2023-08-30T13:25:21;7.80;;;7.07;;
15230;SDS011;32569;51.762;8.564;2023-08-30T13:27:48;7.90;;;7.17;;
15230;SDS011;32569;51.762;8.564;2023-08-30T13:30:15;8.67;;;7.70;;
15230;SDS011;32569;51.762;8.564;2023-08-30T13:32:49;8.87;;;8.17;;
15230;SDS011;32569;51.762;8.564;2023-08-30T13:35:17;9.43;;;8.57;;
15230;SDS011;32569;51.762;8.564;2023-08-30T13:37:45;9.80;;;8.73;;
15230;SDS011;32569;51.762;8.564;2023-08-30T13:40:14;9.57;;;8.60;;
15230;SDS011;32569;51.762;8.564;2023-08-30T13:42:41;8.93;;;8.23;;
15230;SDS011;32569;51.762;8.564;2023-08-30T13:45:08;9.80;;;8.90;;
15230;SDS011;32569;51.762;8.564;2023-08-30T13:47:35;10.83;;;9.93;;
15230;SDS011;32569;51.762;8.564;2023-08-30T13:50:02;11.00;;;9.90;;
15230;SDS011;32569;51.762;8.564;2023-08-30T13:52:33;12.20;;;11.00;;
15230;SDS011;32569;51.762;8.564;2023-08-30T13:55:07;11.87;;;10.87;;
15230;SDS011;32569;51.762;8.564;2023-08-30T13:57:37;11.40;;;10.50;;
15230;SDS011;32569;51.762;8.564;2023-08-30T14:00:04;12.50;;;11.40;;
15230;SDS011;32569;51.762;8.564;2023-08-30T14:02:41;13.87;;;12.60;;
15230;SDS011;32569;51.762;8.564;2023-08-30T14:05:10;15.40;;;14.00;;
15230;SDS011;32569;51.762;8.564;2023-08-30T14:07:39;15.37;;;13.87;;
15230;SDS011;32569;51.762;8.564;2023-08-30T14:10:07;15.63;;;14.27;;
15230;SDS011;32569;51.762;8.564;2023-08-30T14:12:36;15.13;;;13.70;;
15230;SDS011;32569;51.762;8.564;2023-08-30T14:15:03;15.27;;;13.87;;
15230;SDS011;32569;51.762;8.564;2023-08-30T14:17:33;14.80;;;13.60;;
15230;SDS011;32569;51.762;8.564;2023-08-30T14:19:59;13.00;;;11.93;;
15230;SDS011;32569;51.762;8.564;2023-08-30T14:22:30;13.67;;;12.47;;
15230;SDS011;32569;51.762;8.564;2023-08-30T14:24:57;14.03;;;12.83;;
15230;SDS011;32569;51.762;8.564;2023-08-30T14:27:26;14.03;;;12.77;;
15230;SDS011;32569;51.762;8.564;2023-08-30T14:29:53;15.07;;;13.77;;
15230;SDS011;32569;51.762;8.564;2023-08-30T14:32:19;13.80;;;12.60;;
15230;SDS011;32569;51.762;8.564;2023-08-30T14:34:46;13.83;;;12.50;;
15230;SDS011;32569;51.762;8.564;2023-08-30T14:37:13;13.77;;;12.47;;
15230;SDS011;32569;51.762;8.564;2023-08-30T14:39:40;13.47;;;12.27;;
15230;SDS011;32569;51.762;8.564;2023-08-30T14:42:06;13.37;;;12.17;;
15230;SDS011;32569;51.762;8.564;2023-08-30T14:44:34;54.73;;;44.00;;